GIPSM EGPE-EIDL

Flight info

Callsign GIPSM
Flight time 1h 22m
Altitude 4500
Route ISY
Aircraft BE58/L-SDFGRY/C

Departure

Time 2026-04-20 15:35
Airport Inverness Airport (EGPE)

Arrival

Time 2026-04-20 16:58
Airport Donegal Airport (EIDL)
Time Latitude Longitude Altitude Speed Heading
2026-04-20 15:27 57.54301 -4.06288 27 ft 0 kts 119°
2026-04-20 15:32 57.54296 -4.06272 26 ft 3 kts 132°
2026-04-20 15:32 57.54252 -4.06264 26 ft 9 kts 174°
2026-04-20 15:32 57.54181 -4.06209 26 ft 13 kts 154°
2026-04-20 15:33 57.54085 -4.06143 26 ft 16 kts 184°
2026-04-20 15:33 57.53958 -4.06161 26 ft 19 kts 182°
2026-04-20 15:33 57.53815 -4.06186 26 ft 16 kts 184°
2026-04-20 15:33 57.53750 -4.06086 26 ft 13 kts 122°
2026-04-20 15:34 57.53720 -4.05921 26 ft 14 kts 67°
2026-04-20 15:34 57.53781 -4.05773 26 ft 14 kts 47°
2026-04-20 15:34 57.53892 -4.05533 26 ft 42 kts 49°
2026-04-20 15:34 57.54203 -4.04843 47 ft 93 kts 51°
2026-04-20 15:35 57.54637 -4.03834 281 ft 109 kts 52°
2026-04-20 15:35 57.55142 -4.02656 578 ft 119 kts 51°
2026-04-20 15:35 57.55786 -4.01642 795 ft 133 kts 25°
2026-04-20 15:35 57.56734 -4.01766 936 ft 151 kts 338°
2026-04-20 15:36 57.57578 -4.03096 996 ft 165 kts 313°
2026-04-20 15:36 57.57863 -4.05221 969 ft 181 kts 266°
2026-04-20 15:36 57.57387 -4.07381 1085 ft 179 kts 242°
2026-04-20 15:36 57.56930 -4.09502 1257 ft 177 kts 252°
2026-04-20 15:37 57.56623 -4.11735 1213 ft 183 kts 258°
2026-04-20 15:37 57.56353 -4.14025 1307 ft 175 kts 260°
2026-04-20 15:37 57.56060 -4.16175 1431 ft 174 kts 248°
2026-04-20 15:37 57.55367 -4.18106 1399 ft 183 kts 229°
2026-04-20 15:38 57.54528 -4.19869 1470 ft 183 kts 227°
2026-04-20 15:38 57.53661 -4.21547 1682 ft 176 kts 224°
2026-04-20 15:38 57.52796 -4.23098 1894 ft 172 kts 222°
2026-04-20 15:38 57.51883 -4.24638 1915 ft 179 kts 219°
2026-04-20 15:39 57.50945 -4.26056 2175 ft 170 kts 216°
2026-04-20 15:39 57.50005 -4.27389 2334 ft 171 kts 214°
2026-04-20 15:39 57.49021 -4.28639 2464 ft 171 kts 211°
2026-04-20 15:39 57.48035 -4.29822 2658 ft 169 kts 211°
2026-04-20 15:40 57.47033 -4.30988 2794 ft 171 kts 210°
2026-04-20 15:40 57.46014 -4.32133 2942 ft 171 kts 208°
2026-04-20 15:40 57.44996 -4.33263 3072 ft 171 kts 209°
2026-04-20 15:40 57.43971 -4.34402 3189 ft 172 kts 208°
2026-04-20 15:41 57.42933 -4.35527 3320 ft 172 kts 207°
2026-04-20 15:41 57.41898 -4.36641 3420 ft 173 kts 208°
2026-04-20 15:41 57.40857 -4.37779 3513 ft 175 kts 208°
2026-04-20 15:41 57.39808 -4.38906 3632 ft 174 kts 207°
2026-04-20 15:42 57.38750 -4.40001 3728 ft 175 kts 206°
2026-04-20 15:42 57.37676 -4.41081 3853 ft 174 kts 206°
2026-04-20 15:42 57.36608 -4.42129 3973 ft 174 kts 205°
2026-04-20 15:42 57.35524 -4.43126 4079 ft 174 kts 202°
2026-04-20 15:43 57.34421 -4.44049 4195 ft 174 kts 202°
2026-04-20 15:43 57.33319 -4.44983 4292 ft 175 kts 201°
2026-04-20 15:43 57.32223 -4.45933 4362 ft 173 kts 203°
2026-04-20 15:43 57.31203 -4.46995 4434 ft 169 kts 211°
2026-04-20 15:44 57.30254 -4.48326 4400 ft 172 kts 216°
2026-04-20 15:44 57.29337 -4.49695 4506 ft 166 kts 217°
2026-04-20 15:44 57.28429 -4.51075 4437 ft 173 kts 216°
2026-04-20 15:44 57.27495 -4.52415 4451 ft 171 kts 215°
2026-04-20 15:45 57.26579 -4.53787 4479 ft 169 kts 214°
2026-04-20 15:45 57.25627 -4.55075 4476 ft 169 kts 216°
2026-04-20 15:45 57.24687 -4.56393 4466 ft 170 kts 216°
2026-04-20 15:45 57.23752 -4.57716 4478 ft 170 kts 217°
2026-04-20 15:46 57.22805 -4.59038 4485 ft 171 kts 214°
2026-04-20 15:46 57.21864 -4.60354 4467 ft 170 kts 216°
2026-04-20 15:46 57.20913 -4.61695 4459 ft 170 kts 215°
2026-04-20 15:46 57.19987 -4.62986 4473 ft 169 kts 213°
2026-04-20 15:47 57.19048 -4.64309 4466 ft 168 kts 214°
2026-04-20 15:47 57.18124 -4.65628 4466 ft 166 kts 214°
2026-04-20 15:47 57.17200 -4.66916 4473 ft 166 kts 214°
2026-04-20 15:47 57.16288 -4.68213 4455 ft 165 kts 214°
2026-04-20 15:48 57.15370 -4.69455 4457 ft 163 kts 212°
2026-04-20 15:48 57.14450 -4.70674 4468 ft 161 kts 212°
2026-04-20 15:48 57.13530 -4.71866 4447 ft 160 kts 210°
2026-04-20 15:48 57.12632 -4.73042 4450 ft 160 kts 212°
2026-04-20 15:49 57.11728 -4.74233 4457 ft 159 kts 213°
2026-04-20 15:49 57.10822 -4.75422 4449 ft 158 kts 213°
2026-04-20 15:49 57.09931 -4.76571 4441 ft 156 kts 214°
2026-04-20 15:49 57.09066 -4.77714 4466 ft 152 kts 213°
2026-04-20 15:50 57.08205 -4.78859 4453 ft 149 kts 213°
2026-04-20 15:50 57.07381 -4.79955 4448 ft 145 kts 214°
2026-04-20 15:50 57.06579 -4.81037 4439 ft 140 kts 216°
2026-04-20 15:50 57.05801 -4.82075 4430 ft 135 kts 212°
2026-04-20 15:51 57.05068 -4.83059 4460 ft 128 kts 208°
2026-04-20 15:51 57.04371 -4.84008 4453 ft 120 kts 212°
2026-04-20 15:51 57.03716 -4.84913 4442 ft 112 kts 213°
2026-04-20 15:51 57.03052 -4.85534 4248 ft 107 kts 171°
2026-04-20 15:52 57.02605 -4.84720 3831 ft 104 kts 70°
2026-04-20 15:52 57.02739 -4.83696 4180 ft 74 kts 84°
2026-04-20 15:52 57.02639 -4.82659 4264 ft 94 kts 114°
2026-04-20 15:53 57.01289 -4.82314 4795 ft 120 kts 206°
2026-04-20 15:53 57.00565 -4.83245 4880 ft 140 kts 211°
2026-04-20 15:53 56.99694 -4.84380 4727 ft 167 kts 211°
2026-04-20 15:53 56.98700 -4.85671 4674 ft 180 kts 213°
2026-04-20 15:54 56.97656 -4.87020 4577 ft 188 kts 212°
2026-04-20 15:54 56.96591 -4.88512 4519 ft 194 kts 216°
2026-04-20 15:54 56.95544 -4.90055 4483 ft 193 kts 217°
2026-04-20 15:54 56.94509 -4.91570 4416 ft 186 kts 218°
2026-04-20 15:55 56.93509 -4.93024 4390 ft 180 kts 216°
2026-04-20 15:55 56.92551 -4.94419 4394 ft 174 kts 215°
2026-04-20 15:55 56.91622 -4.95786 4402 ft 171 kts 216°
2026-04-20 15:55 56.90694 -4.97137 4388 ft 167 kts 216°
2026-04-20 15:56 56.89846 -4.98372 4376 ft 166 kts 214°
2026-04-20 15:56 56.88963 -4.99677 4399 ft 162 kts 217°
2026-04-20 15:56 56.88082 -5.00977 4397 ft 162 kts 217°
2026-04-20 15:56 56.87235 -5.02237 4394 ft 161 kts 217°
2026-04-20 15:57 56.86411 -5.03466 4398 ft 161 kts 218°
2026-04-20 15:57 56.85580 -5.04707 4398 ft 161 kts 217°
2026-04-20 15:57 56.84759 -5.05928 4426 ft 159 kts 216°
2026-04-20 15:57 56.83881 -5.07229 4402 ft 158 kts 216°
2026-04-20 15:58 56.83038 -5.08473 4435 ft 157 kts 215°
2026-04-20 15:58 56.82187 -5.09737 4439 ft 156 kts 217°
2026-04-20 15:58 56.81349 -5.10978 4420 ft 155 kts 218°
2026-04-20 15:58 56.80515 -5.12219 4426 ft 154 kts 217°
2026-04-20 15:59 56.79699 -5.13434 4433 ft 152 kts 217°
2026-04-20 15:59 56.78880 -5.14649 4436 ft 152 kts 217°
2026-04-20 15:59 56.78060 -5.15871 4438 ft 151 kts 217°
2026-04-20 15:59 56.77243 -5.17090 4444 ft 151 kts 217°
2026-04-20 16:00 56.76434 -5.18296 4444 ft 150 kts 216°
2026-04-20 16:00 56.75626 -5.19507 4444 ft 149 kts 216°
2026-04-20 16:00 56.74829 -5.20698 4451 ft 148 kts 217°
2026-04-20 16:00 56.74034 -5.21886 4452 ft 147 kts 217°
2026-04-20 16:01 56.73254 -5.23053 4457 ft 146 kts 217°
2026-04-20 16:01 56.72459 -5.24242 4464 ft 146 kts 216°
2026-04-20 16:01 56.71682 -5.25404 4460 ft 146 kts 217°
2026-04-20 16:01 56.70891 -5.26585 4460 ft 147 kts 217°
2026-04-20 16:02 56.70095 -5.27774 4456 ft 148 kts 217°
2026-04-20 16:02 56.69306 -5.28953 4455 ft 149 kts 217°
2026-04-20 16:02 56.68492 -5.30171 4459 ft 151 kts 217°
2026-04-20 16:02 56.67675 -5.31390 4457 ft 153 kts 217°
2026-04-20 16:03 56.66843 -5.32632 4459 ft 157 kts 217°
2026-04-20 16:03 56.65988 -5.33910 4450 ft 160 kts 217°
2026-04-20 16:03 56.65121 -5.35205 4448 ft 163 kts 217°
2026-04-20 16:03 56.64227 -5.36533 4450 ft 166 kts 217°
2026-04-20 16:04 56.63323 -5.37873 4451 ft 169 kts 217°
2026-04-20 16:04 56.62387 -5.39187 4453 ft 170 kts 213°
2026-04-20 16:04 56.61416 -5.40445 4450 ft 171 kts 213°
2026-04-20 16:04 56.60442 -5.41708 4453 ft 171 kts 213°
2026-04-20 16:05 56.59468 -5.42965 4462 ft 172 kts 213°
2026-04-20 16:05 56.58500 -5.44214 4459 ft 172 kts 213°
2026-04-20 16:05 56.57514 -5.45457 4464 ft 172 kts 210°
2026-04-20 16:05 56.56503 -5.46639 4461 ft 173 kts 210°
2026-04-20 16:06 56.55477 -5.47835 4458 ft 173 kts 210°
2026-04-20 16:06 56.54456 -5.49025 4459 ft 173 kts 210°
2026-04-20 16:06 56.53427 -5.50140 4460 ft 172 kts 205°
2026-04-20 16:06 56.52374 -5.51157 4463 ft 172 kts 205°
2026-04-20 16:07 56.51308 -5.52180 4466 ft 172 kts 205°
2026-04-20 16:07 56.50244 -5.53202 4466 ft 172 kts 205°
2026-04-20 16:07 56.49190 -5.54212 4465 ft 172 kts 205°
2026-04-20 16:07 56.48124 -5.55235 4463 ft 172 kts 205°
2026-04-20 16:08 56.47075 -5.56240 4460 ft 172 kts 205°
2026-04-20 16:08 56.46016 -5.57256 4459 ft 172 kts 205°
2026-04-20 16:08 56.44951 -5.58278 4458 ft 172 kts 205°
2026-04-20 16:08 56.43908 -5.59284 4457 ft 172 kts 205°
2026-04-20 16:09 56.42852 -5.60307 4457 ft 172 kts 205°
2026-04-20 16:09 56.41791 -5.61332 4460 ft 172 kts 205°
2026-04-20 16:09 56.40729 -5.62356 4465 ft 172 kts 205°
2026-04-20 16:09 56.39674 -5.63371 4465 ft 172 kts 205°
2026-04-20 16:10 56.38611 -5.64387 4462 ft 172 kts 205°
2026-04-20 16:10 56.37587 -5.65367 4463 ft 172 kts 204°
2026-04-20 16:10 56.36530 -5.66379 4462 ft 172 kts 204°
2026-04-20 16:10 56.35464 -5.67399 4462 ft 172 kts 204°
2026-04-20 16:11 56.34412 -5.68401 4461 ft 171 kts 204°
2026-04-20 16:11 56.33365 -5.69405 4462 ft 171 kts 204°
2026-04-20 16:11 56.32308 -5.70421 4461 ft 171 kts 204°
2026-04-20 16:11 56.31256 -5.71438 4460 ft 171 kts 204°
2026-04-20 16:12 56.30197 -5.72460 4458 ft 171 kts 204°
2026-04-20 16:12 56.29155 -5.73469 4458 ft 171 kts 204°
2026-04-20 16:12 56.28112 -5.74477 4459 ft 170 kts 204°
2026-04-20 16:12 56.27062 -5.75486 4460 ft 171 kts 204°
2026-04-20 16:13 56.26011 -5.76497 4458 ft 171 kts 204°
2026-04-20 16:13 56.24949 -5.77515 4458 ft 171 kts 204°
2026-04-20 16:13 56.23893 -5.78523 4457 ft 171 kts 204°
2026-04-20 16:13 56.22830 -5.79537 4454 ft 170 kts 204°
2026-04-20 16:14 56.21763 -5.80548 4455 ft 170 kts 204°
2026-04-20 16:14 56.20701 -5.81562 4456 ft 170 kts 204°
2026-04-20 16:14 56.19651 -5.82567 4454 ft 170 kts 204°
2026-04-20 16:14 56.18584 -5.83591 4454 ft 170 kts 204°
2026-04-20 16:15 56.17532 -5.84604 4449 ft 170 kts 204°
2026-04-20 16:15 56.16460 -5.85636 4448 ft 170 kts 204°
2026-04-20 16:15 56.15398 -5.86660 4448 ft 169 kts 204°
2026-04-20 16:15 56.14340 -5.87676 4449 ft 169 kts 204°
2026-04-20 16:16 56.13290 -5.88692 4449 ft 169 kts 204°
2026-04-20 16:16 56.12236 -5.89707 4448 ft 169 kts 204°
2026-04-20 16:16 56.11198 -5.90699 4448 ft 169 kts 204°
2026-04-20 16:16 56.10144 -5.91703 4446 ft 169 kts 204°
2026-04-20 16:17 56.09098 -5.92694 4446 ft 170 kts 204°
2026-04-20 16:17 56.08049 -5.93689 4444 ft 170 kts 204°
2026-04-20 16:17 56.06988 -5.94701 4438 ft 170 kts 204°
2026-04-20 16:17 56.05933 -5.95710 4435 ft 170 kts 204°
2026-04-20 16:18 56.04884 -5.96715 4428 ft 170 kts 204°
2026-04-20 16:18 56.03810 -5.97742 4428 ft 169 kts 204°
2026-04-20 16:18 56.02764 -5.98749 4462 ft 167 kts 204°
2026-04-20 16:18 56.01736 -5.99737 4465 ft 167 kts 204°
2026-04-20 16:19 56.00699 -6.00734 4465 ft 168 kts 204°
2026-04-20 16:19 55.99643 -6.01738 4465 ft 168 kts 204°
2026-04-20 16:19 55.98576 -6.02750 4467 ft 168 kts 204°
2026-04-20 16:19 55.97532 -6.03733 4467 ft 168 kts 204°
2026-04-20 16:20 55.96479 -6.04726 4468 ft 169 kts 204°
2026-04-20 16:20 55.95435 -6.05710 4467 ft 169 kts 204°
2026-04-20 16:20 55.94382 -6.06705 4469 ft 169 kts 204°
2026-04-20 16:20 55.93339 -6.07692 4467 ft 169 kts 204°
2026-04-20 16:21 55.92293 -6.08681 4469 ft 169 kts 204°
2026-04-20 16:21 55.91254 -6.09665 4467 ft 169 kts 204°
2026-04-20 16:21 55.90329 -6.10985 4466 ft 172 kts 227°
2026-04-20 16:21 55.89735 -6.12617 4471 ft 172 kts 238°
2026-04-20 16:22 55.89133 -6.14487 4476 ft 173 kts 236°
2026-04-20 16:22 55.88455 -6.16282 4469 ft 172 kts 233°
2026-04-20 16:22 55.87773 -6.18033 4477 ft 172 kts 233°
2026-04-20 16:22 55.87082 -6.19793 4475 ft 173 kts 234°
2026-04-20 16:23 55.86386 -6.21563 4485 ft 174 kts 233°
2026-04-20 16:23 55.85688 -6.23337 4470 ft 174 kts 233°
2026-04-20 16:23 55.84998 -6.25082 4469 ft 174 kts 233°
2026-04-20 16:23 55.84298 -6.26847 4474 ft 173 kts 233°
2026-04-20 16:24 55.83605 -6.28593 4473 ft 173 kts 233°
2026-04-20 16:24 55.82898 -6.30366 4471 ft 173 kts 233°
2026-04-20 16:24 55.82202 -6.32110 4470 ft 173 kts 233°
2026-04-20 16:24 55.81490 -6.33894 4468 ft 173 kts 233°
2026-04-20 16:25 55.80788 -6.35653 4475 ft 173 kts 233°
2026-04-20 16:25 55.80082 -6.37428 4471 ft 174 kts 233°
2026-04-20 16:25 55.79388 -6.39177 4465 ft 173 kts 233°
2026-04-20 16:25 55.78691 -6.40940 4471 ft 173 kts 233°
2026-04-20 16:26 55.78000 -6.42690 4474 ft 174 kts 233°
2026-04-20 16:26 55.77296 -6.44465 4467 ft 174 kts 233°
2026-04-20 16:26 55.76572 -6.46171 4470 ft 174 kts 230°
2026-04-20 16:26 55.75809 -6.47842 4467 ft 173 kts 230°
2026-04-20 16:27 55.75044 -6.49514 4469 ft 173 kts 230°
2026-04-20 16:27 55.74265 -6.51213 4480 ft 174 kts 230°
2026-04-20 16:27 55.73454 -6.52985 4475 ft 174 kts 230°
2026-04-20 16:27 55.72648 -6.54749 4471 ft 174 kts 230°
2026-04-20 16:28 55.71880 -6.56433 4473 ft 174 kts 230°
2026-04-20 16:28 55.71101 -6.58143 4473 ft 174 kts 230°
2026-04-20 16:28 55.70322 -6.59847 4474 ft 173 kts 230°
2026-04-20 16:28 55.69537 -6.61560 4477 ft 174 kts 230°
2026-04-20 16:29 55.68761 -6.63256 4476 ft 175 kts 230°
2026-04-20 16:29 55.67969 -6.64982 4471 ft 175 kts 230°
2026-04-20 16:29 55.67216 -6.66619 4464 ft 174 kts 229°
2026-04-20 16:29 55.66440 -6.68308 4466 ft 174 kts 229°
2026-04-20 16:30 55.65672 -6.69974 4467 ft 174 kts 229°
2026-04-20 16:30 55.64913 -6.71621 4471 ft 174 kts 229°
2026-04-20 16:30 55.64144 -6.73286 4470 ft 174 kts 229°
2026-04-20 16:30 55.63374 -6.74955 4470 ft 174 kts 229°
2026-04-20 16:31 55.62614 -6.76602 4468 ft 174 kts 229°
2026-04-20 16:31 55.61845 -6.78271 4464 ft 174 kts 229°
2026-04-20 16:31 55.61086 -6.79921 4464 ft 173 kts 229°
2026-04-20 16:31 55.60321 -6.81579 4467 ft 174 kts 229°
2026-04-20 16:32 55.59560 -6.83239 4463 ft 174 kts 229°
2026-04-20 16:32 55.58797 -6.84905 4463 ft 174 kts 229°
2026-04-20 16:32 55.58042 -6.86546 4459 ft 174 kts 229°
2026-04-20 16:32 55.57279 -6.88206 4457 ft 174 kts 229°
2026-04-20 16:33 55.56522 -6.89848 4460 ft 173 kts 229°
2026-04-20 16:33 55.55756 -6.91500 4460 ft 173 kts 229°
2026-04-20 16:33 55.54990 -6.93153 4462 ft 173 kts 229°
2026-04-20 16:33 55.54232 -6.94780 4464 ft 173 kts 229°
2026-04-20 16:34 55.53466 -6.96423 4468 ft 173 kts 229°
2026-04-20 16:34 55.52699 -6.98076 4464 ft 173 kts 229°
2026-04-20 16:34 55.51932 -6.99733 4463 ft 173 kts 229°
2026-04-20 16:34 55.51176 -7.01368 4460 ft 173 kts 229°
2026-04-20 16:35 55.50409 -7.03026 4469 ft 173 kts 229°
2026-04-20 16:35 55.49647 -7.04681 4472 ft 173 kts 229°
2026-04-20 16:35 55.48891 -7.06317 4468 ft 174 kts 229°
2026-04-20 16:35 55.48121 -7.07981 4467 ft 174 kts 229°
2026-04-20 16:36 55.47360 -7.09625 4470 ft 174 kts 229°
2026-04-20 16:36 55.46579 -7.11308 4467 ft 174 kts 229°
2026-04-20 16:36 55.45805 -7.12977 4465 ft 174 kts 229°
2026-04-20 16:36 55.45029 -7.14636 4461 ft 174 kts 229°
2026-04-20 16:37 55.44247 -7.16308 4460 ft 174 kts 229°
2026-04-20 16:37 55.43475 -7.17966 4459 ft 174 kts 229°
2026-04-20 16:37 55.42698 -7.19635 4455 ft 174 kts 229°
2026-04-20 16:37 55.41935 -7.21275 4460 ft 174 kts 229°
2026-04-20 16:38 55.41166 -7.22930 4461 ft 174 kts 229°
2026-04-20 16:38 55.40382 -7.24613 4459 ft 174 kts 229°
2026-04-20 16:38 55.39601 -7.26290 4465 ft 174 kts 229°
2026-04-20 16:38 55.38825 -7.27955 4463 ft 174 kts 229°
2026-04-20 16:39 55.38049 -7.29612 4458 ft 174 kts 229°
2026-04-20 16:39 55.37281 -7.31243 4458 ft 174 kts 229°
2026-04-20 16:39 55.36502 -7.32895 4457 ft 174 kts 229°
2026-04-20 16:39 55.35733 -7.34523 4457 ft 175 kts 229°
2026-04-20 16:40 55.34945 -7.36189 4456 ft 175 kts 229°
2026-04-20 16:40 55.34167 -7.37831 4455 ft 175 kts 229°
2026-04-20 16:40 55.33395 -7.39462 4457 ft 175 kts 229°
2026-04-20 16:40 55.32615 -7.41111 4459 ft 175 kts 229°
2026-04-20 16:41 55.31829 -7.42774 4456 ft 175 kts 229°
2026-04-20 16:41 55.31052 -7.44416 4453 ft 175 kts 229°
2026-04-20 16:41 55.30267 -7.46071 4450 ft 175 kts 229°
2026-04-20 16:41 55.29485 -7.47720 4283 ft 179 kts 229°
2026-04-20 16:42 55.28684 -7.49410 4100 ft 181 kts 229°
2026-04-20 16:42 55.27875 -7.51113 3920 ft 182 kts 229°
2026-04-20 16:42 55.27055 -7.52836 3737 ft 182 kts 229°
2026-04-20 16:42 55.26241 -7.54541 3563 ft 182 kts 229°
2026-04-20 16:43 55.25431 -7.56231 3389 ft 182 kts 229°
2026-04-20 16:43 55.24682 -7.57992 3199 ft 183 kts 239°
2026-04-20 16:43 55.24135 -7.60025 2997 ft 183 kts 252°
2026-04-20 16:43 55.23871 -7.62193 2825 ft 182 kts 264°
2026-04-20 16:44 55.23707 -7.64364 2688 ft 179 kts 266°
2026-04-20 16:44 55.23600 -7.66483 2519 ft 179 kts 268°
2026-04-20 16:44 55.23553 -7.68650 2347 ft 180 kts 271°
2026-04-20 16:44 55.23552 -7.70833 2204 ft 177 kts 273°
2026-04-20 16:45 55.23582 -7.72961 2100 ft 173 kts 274°
2026-04-20 16:45 55.23631 -7.75065 2009 ft 171 kts 276°
2026-04-20 16:45 55.23659 -7.77137 1893 ft 171 kts 271°
2026-04-20 16:45 55.23559 -7.79169 1903 ft 164 kts 265°
2026-04-20 16:46 55.23386 -7.81144 1843 ft 164 kts 264°
2026-04-20 16:46 55.23228 -7.83063 1847 ft 158 kts 264°
2026-04-20 16:46 55.23074 -7.84962 1829 ft 156 kts 267°
2026-04-20 16:46 55.22962 -7.86850 1802 ft 156 kts 267°
2026-04-20 16:47 55.22819 -7.88748 1754 ft 157 kts 265°
2026-04-20 16:47 55.22670 -7.90616 1723 ft 157 kts 261°
2026-04-20 16:47 55.22310 -7.92435 1670 ft 159 kts 245°
2026-04-20 16:47 55.21721 -7.94079 1652 ft 158 kts 234°
2026-04-20 16:48 55.21079 -7.95612 1698 ft 155 kts 234°
2026-04-20 16:48 55.20435 -7.97121 1678 ft 155 kts 232°
2026-04-20 16:48 55.19833 -7.98619 1700 ft 151 kts 238°
2026-04-20 16:48 55.19307 -8.00249 1659 ft 152 kts 245°
2026-04-20 16:49 55.18828 -8.01923 1639 ft 152 kts 245°
2026-04-20 16:49 55.18381 -8.03587 1716 ft 152 kts 247°
2026-04-20 16:49 55.17959 -8.05291 1784 ft 152 kts 250°
2026-04-20 16:49 55.17571 -8.06997 1882 ft 151 kts 251°
2026-04-20 16:50 55.17220 -8.08770 1898 ft 156 kts 254°
2026-04-20 16:50 55.16904 -8.10561 1985 ft 154 kts 257°
2026-04-20 16:50 55.16613 -8.12414 1963 ft 160 kts 258°
2026-04-20 16:50 55.16354 -8.14300 1999 ft 160 kts 261°
2026-04-20 16:51 55.16140 -8.16188 2051 ft 160 kts 263°
2026-04-20 16:51 55.15957 -8.18127 2073 ft 161 kts 265°
2026-04-20 16:51 55.15821 -8.20079 2136 ft 160 kts 268°
2026-04-20 16:51 55.15693 -8.21990 2185 ft 161 kts 261°
2026-04-20 16:52 55.15331 -8.23880 2195 ft 165 kts 247°
2026-04-20 16:52 55.14763 -8.25619 2243 ft 165 kts 236°
2026-04-20 16:52 55.14056 -8.27230 2207 ft 170 kts 231°
2026-04-20 16:52 55.13303 -8.28832 2197 ft 171 kts 230°
2026-04-20 16:53 55.12539 -8.30424 2167 ft 174 kts 228°
2026-04-20 16:53 55.11715 -8.32000 2125 ft 176 kts 226°
2026-04-20 16:53 55.10855 -8.33556 2079 ft 178 kts 225°
2026-04-20 16:53 55.09978 -8.35039 2062 ft 177 kts 220°
2026-04-20 16:54 55.08910 -8.36204 1838 ft 187 kts 202°
2026-04-20 16:54 55.07668 -8.37050 1575 ft 191 kts 199°
2026-04-20 16:54 55.06421 -8.37789 1482 ft 183 kts 183°
2026-04-20 16:54 55.05111 -8.37480 1033 ft 194 kts 168°
2026-04-20 16:55 55.03780 -8.37851 932 ft 189 kts 196°
2026-04-20 16:55 55.02583 -8.38545 949 ft 179 kts 197°
2026-04-20 16:55 55.01467 -8.39258 1045 ft 163 kts 198°
2026-04-20 16:55 55.00432 -8.39245 1033 ft 144 kts 150°
2026-04-20 16:56 54.99916 -8.38059 970 ft 114 kts 88°
2026-04-20 16:56 55.00294 -8.37141 875 ft 97 kts 22°
2026-04-20 16:56 55.00873 -8.36558 696 ft 95 kts 36°
2026-04-20 16:56 55.01453 -8.36012 558 ft 95 kts 24°
2026-04-20 16:57 55.02070 -8.35600 424 ft 94 kts 23°
2026-04-20 16:57 55.02700 -8.35204 275 ft 96 kts 21°
2026-04-20 16:57 55.03329 -8.34803 136 ft 96 kts 24°
2026-04-20 16:57 55.03930 -8.34413 20 ft 89 kts 21°
2026-04-20 16:58 55.04324 -8.34150 7 ft 21 kts 22°
2026-04-20 16:58 55.04373 -8.34133 8 ft 10 kts 201°
2026-04-20 16:58 55.04277 -8.34194 7 ft 18 kts 200°
2026-04-20 16:58 55.04136 -8.34286 7 ft 24 kts 200°
2026-04-20 16:59 55.03959 -8.34395 7 ft 28 kts 198°
2026-04-20 16:59 55.03882 -8.34367 7 ft 9 kts 106°
2026-04-20 16:59 55.03887 -8.34256 5 ft 9 kts 76°
2026-04-20 16:59 55.03844 -8.34240 5 ft 2 kts 247°
2026-04-20 17:00 55.03848 -8.34262 6 ft 0 kts 288°